Pagrindinis puslapis
METAR-TAF:

METAR-TAF

Oro uostai :

Tokijas Haneda, Japonija

platuma: 35-33N, ilguma: 139-47E, Aukštis: 5 m

Dabartinis oras

Ataskaita buvo paskelbta 22 minutes, ne 12:30 UTC
Vėjas 7 kt iš Šiaurės Rytų, svyruoja nuo Šiaurės ir Rytų
Temperatūra 9°C
Drėgmė 66%
Slėgis 1026 hPa
Matomumas 10 km arba daugiau
Mažai debesys ne aukštis 2500 ft
Su prošvaistėmis ne aukštis 4500 ft

METAR: RJTT 131230Z 04007KT 010V080 9999 FEW025 BKN045 09/03 Q1026 NOSIG RMK 1CU025 7SC045 A3030

Laikas: 21:52 (12:52 UTC)

Prognozė

Ataskaita buvo paskelbta 1 valandą ir 47 minutes, ne 11:05 UTC
Prognozė galioja nuo 13 metu 12 UTC su 14 metu 18 UTC
Vėjas 8 kt iš Šiaurės
Matomumas 10 km arba daugiau
Mažai debesys ne aukštis 1500 ft
Su prošvaistėmis ne aukštis 3000 ft
Tapsmas
nuo 14 metu 00 UTC su 14 metu 03 UTC
Vėjas 14 kt iš Pietų/Pietvakarių
Tapsmas
nuo 14 metu 09 UTC su 14 metu 12 UTC
Vėjas 20 kt iš Šiaurės

TAF: RJTT 131105Z 1312/1418 01008KT 9999 FEW015 BKN030 BECMG 1400/1403 21014KT BECMG 1409/1412 35020KT

Orai ataskaitas ir orų prognozės (METAR, TAF).

turimą stotys yra geltonos ir raudonos taškus žemėlapyje.

Perkelti pele per norėdami pamatyti stoties vardą.

Tada spustelėkite, norėdami matyti oro stebėjimo ir prognozės.

Norėdami pakeisti žemėlapį: spustelėkite ant žalios mygtukų su juodo kryžiaus žemyn,; žalią mygtuką su brūkšneliu, jei norite nutolinti; arba žalių rodyklių gretimoms žemėlapius.


METAR-TAF: